createdAt,value
2022-07-29T00:00:17.954Z,14.70
2022-07-29T00:02:45.799Z,14.70
2022-07-29T00:05:15.149Z,14.60
2022-07-29T00:07:42.882Z,14.60
2022-07-29T00:10:10.733Z,14.60
2022-07-29T00:12:38.402Z,14.50
2022-07-29T00:15:06.902Z,14.60
2022-07-29T00:17:35.303Z,14.60
2022-07-29T00:20:02.849Z,14.50
2022-07-29T00:22:30.459Z,14.50
2022-07-29T00:24:58.198Z,14.50
2022-07-29T00:27:25.697Z,14.50
2022-07-29T00:29:53.143Z,14.40
2022-07-29T00:32:20.635Z,14.40
2022-07-29T00:35:06.737Z,14.30
2022-07-29T00:37:34.357Z,14.40
2022-07-29T00:40:02.120Z,14.40
2022-07-29T00:42:29.781Z,14.40
2022-07-29T00:44:57.297Z,14.30
2022-07-29T00:47:25.069Z,14.30
2022-07-29T00:49:52.673Z,14.30
2022-07-29T00:52:20.129Z,14.20
2022-07-29T00:54:48.096Z,14.20
2022-07-29T00:57:15.745Z,14.30
2022-07-29T00:59:43.286Z,14.30
2022-07-29T01:02:11.523Z,14.20
2022-07-29T01:04:39.261Z,14.20
2022-07-29T01:07:07.205Z,14.20
2022-07-29T01:09:45.837Z,14.20
2022-07-29T01:12:34.571Z,14.20
2022-07-29T01:15:03.783Z,14.20
2022-07-29T01:17:53.670Z,14.20
2022-07-29T01:20:31.459Z,14.20
2022-07-29T01:22:59.523Z,14.30
2022-07-29T01:25:27.181Z,14.30
2022-07-29T01:28:01.901Z,14.20
2022-07-29T01:30:32.579Z,14.30
2022-07-29T01:33:04.432Z,14.40
2022-07-29T01:35:40.646Z,14.40
2022-07-29T01:38:21.778Z,14.40
2022-07-29T01:40:52.544Z,14.50
2022-07-29T01:43:22.133Z,14.50
2022-07-29T01:46:12.805Z,14.50
2022-07-29T01:48:51.961Z,14.40
2022-07-29T01:51:25.275Z,14.50
2022-07-29T01:54:00.233Z,14.40
2022-07-29T01:56:32.364Z,14.50
2022-07-29T01:59:00.121Z,14.60
2022-07-29T02:01:28.715Z,14.60
2022-07-29T02:03:56.516Z,14.60
2022-07-29T02:06:24.614Z,14.60
2022-07-29T02:08:53.995Z,14.60
2022-07-29T02:11:21.567Z,14.50
2022-07-29T02:13:50.116Z,14.50
2022-07-29T02:16:20.428Z,14.50
2022-07-29T02:18:49.562Z,14.50
2022-07-29T02:21:21.077Z,14.50
2022-07-29T02:23:50.950Z,14.50
2022-07-29T02:26:20.591Z,14.50
2022-07-29T02:28:48.760Z,14.50
2022-07-29T02:31:17.130Z,14.60
2022-07-29T02:33:45.410Z,14.60
2022-07-29T02:36:12.986Z,14.70
2022-07-29T02:38:54.651Z,14.70
2022-07-29T02:41:25.392Z,14.60
2022-07-29T02:43:56.253Z,14.70
2022-07-29T02:46:35.425Z,14.70
2022-07-29T02:49:23.334Z,14.60
2022-07-29T02:51:54.500Z,14.70
2022-07-29T02:54:25.102Z,14.70
2022-07-29T02:56:55.169Z,14.60
2022-07-29T02:59:24.541Z,14.40
2022-07-29T03:01:52.411Z,14.40
2022-07-29T03:04:20.858Z,14.40
2022-07-29T03:06:50.038Z,14.30
2022-07-29T03:09:18.374Z,14.30
2022-07-29T03:11:49.606Z,14.30
2022-07-29T03:14:19.248Z,14.30
2022-07-29T03:16:47.479Z,14.20
2022-07-29T03:19:15.229Z,14.20
2022-07-29T03:21:42.911Z,14.10
2022-07-29T03:24:11.099Z,14.00
2022-07-29T03:26:38.792Z,14.00
2022-07-29T03:29:06.566Z,14.10
2022-07-29T03:31:35.558Z,14.00
2022-07-29T03:34:03.560Z,14.00
2022-07-29T03:36:31.347Z,14.00
2022-07-29T03:38:59.028Z,14.00
2022-07-29T03:41:26.797Z,13.90
2022-07-29T03:43:54.847Z,13.90
2022-07-29T03:46:23.757Z,13.90
2022-07-29T03:48:54.272Z,13.90
2022-07-29T03:51:34.058Z,13.90
2022-07-29T03:54:07.695Z,13.90
2022-07-29T03:56:40.406Z,13.90
2022-07-29T03:59:08.438Z,13.80
2022-07-29T04:01:36.459Z,13.90
2022-07-29T04:04:05.070Z,13.90
2022-07-29T04:06:39.506Z,13.90
2022-07-29T04:09:07.056Z,14.00
2022-07-29T04:11:59.183Z,14.00
2022-07-29T04:14:25.969Z,14.10
2022-07-29T04:16:54.244Z,14.10
2022-07-29T04:19:21.792Z,14.20
2022-07-29T04:21:50.066Z,14.10
2022-07-29T04:24:18.200Z,14.20
2022-07-29T04:26:49.480Z,14.20
2022-07-29T04:29:17.225Z,14.30
2022-07-29T04:31:44.929Z,14.50
2022-07-29T04:34:13.099Z,14.70
2022-07-29T04:36:41.057Z,14.90
2022-07-29T04:39:08.570Z,15.00
2022-07-29T04:41:36.137Z,15.10
2022-07-29T04:44:07.147Z,15.20
2022-07-29T04:46:35.196Z,15.30
2022-07-29T04:49:04.200Z,15.50
2022-07-29T04:51:31.890Z,15.80
2022-07-29T04:53:59.723Z,16.00
2022-07-29T04:56:27.353Z,16.10
2022-07-29T04:58:54.884Z,16.40
2022-07-29T05:01:22.501Z,16.60
2022-07-29T05:03:49.933Z,16.70
2022-07-29T05:06:17.417Z,16.50
2022-07-29T05:08:45.003Z,16.50
2022-07-29T05:11:15.885Z,16.60
2022-07-29T05:13:46.990Z,16.70
2022-07-29T05:16:15.378Z,16.80
2022-07-29T05:18:43.557Z,16.70
2022-07-29T05:21:11.156Z,16.80
2022-07-29T05:23:38.699Z,17.00
2022-07-29T05:26:06.828Z,17.20
2022-07-29T05:28:36.101Z,17.40
2022-07-29T05:31:03.935Z,17.60
2022-07-29T05:33:36.269Z,17.90
2022-07-29T05:36:06.765Z,18.00
2022-07-29T05:38:34.594Z,18.30
2022-07-29T05:41:02.369Z,18.50
2022-07-29T05:43:30.226Z,18.60
2022-07-29T05:45:58.075Z,18.80
2022-07-29T05:48:25.746Z,18.90
2022-07-29T05:50:53.233Z,19.10
2022-07-29T05:53:21.218Z,19.20
2022-07-29T05:55:49.556Z,19.20
2022-07-29T05:58:17.613Z,19.40
2022-07-29T06:00:45.590Z,19.60
2022-07-29T06:03:13.114Z,19.70
2022-07-29T06:05:40.907Z,19.90
2022-07-29T06:08:08.703Z,19.80
2022-07-29T06:10:36.927Z,20.10
2022-07-29T06:13:04.500Z,20.00
2022-07-29T06:15:32.167Z,20.10
2022-07-29T06:18:01.270Z,20.20
2022-07-29T06:20:33.074Z,20.50
2022-07-29T06:23:01.016Z,20.80
2022-07-29T06:25:32.375Z,21.00
2022-07-29T06:28:00.041Z,21.30
2022-07-29T06:30:28.108Z,21.60
2022-07-29T06:32:56.119Z,21.90
2022-07-29T06:35:39.278Z,22.10
2022-07-29T06:38:25.139Z,22.10
2022-07-29T06:41:08.778Z,22.00
2022-07-29T06:43:52.091Z,22.00
2022-07-29T06:46:22.157Z,21.90
2022-07-29T06:48:50.514Z,21.70
2022-07-29T06:51:21.741Z,21.50
2022-07-29T06:53:59.610Z,21.50
2022-07-29T06:56:30.405Z,21.70
2022-07-29T06:58:57.864Z,22.30
2022-07-29T07:01:25.836Z,22.60
2022-07-29T07:03:53.721Z,22.80
2022-07-29T07:06:21.384Z,22.60
2022-07-29T07:08:48.942Z,22.10
2022-07-29T07:11:16.940Z,22.10
2022-07-29T07:13:44.685Z,21.80
2022-07-29T07:16:12.443Z,22.40
2022-07-29T07:18:40.271Z,22.40
2022-07-29T07:21:08.018Z,22.80
2022-07-29T07:23:35.965Z,23.10
2022-07-29T07:26:04.328Z,22.80
2022-07-29T07:28:31.990Z,22.80
2022-07-29T07:30:59.784Z,23.00
2022-07-29T07:33:28.084Z,23.30
2022-07-29T07:35:55.896Z,23.60
2022-07-29T07:38:23.724Z,24.10
2022-07-29T07:40:51.571Z,24.00
2022-07-29T07:43:19.612Z,23.70
2022-07-29T07:45:47.628Z,23.90
2022-07-29T07:48:15.232Z,23.90
2022-07-29T07:50:43.021Z,24.20
2022-07-29T07:53:10.857Z,24.40
2022-07-29T07:56:09.265Z,24.30
2022-07-29T07:58:32.288Z,24.80
2022-07-29T08:00:59.781Z,25.40
2022-07-29T08:03:27.565Z,25.50
2022-07-29T08:05:55.629Z,25.40
2022-07-29T08:08:23.093Z,25.60
2022-07-29T08:10:56.535Z,25.90
2022-07-29T08:13:26.941Z,26.40
2022-07-29T08:16:12.147Z,26.20
2022-07-29T08:18:40.722Z,26.50
2022-07-29T08:21:08.180Z,26.50
2022-07-29T08:23:51.544Z,26.60
2022-07-29T08:26:23.802Z,26.80
2022-07-29T08:28:52.140Z,27.00
2022-07-29T08:31:20.089Z,27.00
2022-07-29T08:33:47.862Z,27.30
2022-07-29T08:36:15.559Z,26.70
2022-07-29T08:38:43.209Z,27.10
2022-07-29T08:41:10.765Z,29.50
2022-07-29T08:43:39.406Z,34.80
2022-07-29T08:46:07.339Z,38.90
2022-07-29T08:48:35.756Z,40.40
2022-07-29T08:51:04.367Z,43.10
2022-07-29T08:53:33.095Z,45.10
2022-07-29T08:56:03.136Z,43.50
2022-07-29T08:58:33.290Z,42.70
2022-07-29T09:01:07.513Z,43.90
2022-07-29T09:03:37.510Z,44.30
2022-07-29T09:06:05.705Z,44.70
2022-07-29T09:08:34.276Z,44.30
2022-07-29T09:11:04.096Z,47.80
2022-07-29T09:13:33.157Z,47.00
2022-07-29T09:16:04.458Z,45.30
2022-07-29T09:18:37.460Z,49.40
2022-07-29T09:21:29.056Z,45.20
2022-07-29T09:24:05.837Z,46.40
2022-07-29T09:26:34.307Z,49.20
2022-07-29T09:29:09.119Z,50.00
2022-07-29T09:31:38.482Z,50.50
2022-07-29T09:34:07.126Z,50.60
2022-07-29T09:36:45.420Z,52.20
2022-07-29T09:39:13.705Z,50.90
2022-07-29T09:41:48.951Z,49.30
2022-07-29T09:44:16.608Z,48.70
2022-07-29T09:47:07.585Z,43.10
2022-07-29T09:49:36.116Z,42.50
2022-07-29T09:52:10.932Z,40.30
2022-07-29T09:54:38.724Z,41.80
2022-07-29T09:57:07.415Z,42.20
2022-07-29T09:59:35.166Z,39.60
2022-07-29T10:02:03.196Z,39.50
2022-07-29T10:04:43.472Z,37.90
2022-07-29T10:07:11.629Z,38.10
2022-07-29T10:09:39.277Z,36.80
2022-07-29T10:12:08.516Z,37.40
2022-07-29T10:14:40.495Z,35.90
2022-07-29T10:17:09.019Z,36.40
2022-07-29T10:19:37.846Z,36.50
2022-07-29T10:22:10.991Z,34.50
2022-07-29T10:24:39.212Z,34.30
2022-07-29T10:27:08.405Z,33.90
2022-07-29T10:29:37.001Z,34.40
2022-07-29T10:32:17.070Z,34.40
2022-07-29T10:34:47.771Z,35.40
2022-07-29T10:37:36.306Z,35.60
2022-07-29T10:40:30.886Z,34.30
2022-07-29T10:43:02.747Z,34.50
2022-07-29T10:45:31.494Z,34.40
2022-07-29T10:48:07.925Z,33.40
2022-07-29T10:50:58.351Z,33.40
2022-07-29T10:53:45.811Z,32.50
2022-07-29T10:56:25.271Z,33.10
2022-07-29T10:59:20.126Z,34.00
2022-07-29T11:04:46.980Z,33.40
2022-07-29T11:07:17.632Z,32.70
2022-07-29T11:09:46.988Z,32.90
2022-07-29T11:12:36.572Z,34.00
2022-07-29T11:15:04.842Z,31.90
2022-07-29T11:17:53.185Z,31.80
2022-07-29T11:20:38.266Z,31.90
2022-07-29T11:23:28.302Z,31.40
2022-07-29T11:26:12.746Z,31.20
2022-07-29T11:29:00.870Z,30.90
2022-07-29T11:31:39.158Z,31.00
2022-07-29T11:34:20.798Z,30.40
2022-07-29T11:37:07.445Z,30.30
2022-07-29T11:39:36.815Z,30.30
2022-07-29T11:42:17.518Z,30.80
2022-07-29T11:44:58.107Z,29.60
2022-07-29T11:47:38.236Z,29.70
2022-07-29T11:50:11.732Z,29.80
2022-07-29T11:52:49.798Z,30.00
2022-07-29T11:55:18.816Z,30.40
2022-07-29T12:00:41.525Z,30.50
2022-07-29T12:03:11.141Z,30.50
2022-07-29T12:05:48.254Z,30.10
2022-07-29T12:08:21.014Z,29.60
2022-07-29T12:10:49.638Z,29.40
2022-07-29T12:13:18.445Z,29.50
2022-07-29T12:15:55.799Z,29.80
2022-07-29T12:18:28.534Z,29.90
2022-07-29T12:21:06.339Z,29.90
2022-07-29T12:23:35.436Z,29.70
2022-07-29T12:26:10.595Z,29.90
2022-07-29T12:28:39.810Z,29.60
2022-07-29T12:31:13.935Z,29.50
2022-07-29T12:33:41.990Z,29.10
2022-07-29T12:36:17.184Z,28.90
2022-07-29T12:38:45.955Z,28.60
2022-07-29T12:41:14.036Z,28.00
2022-07-29T12:43:53.809Z,27.60
2022-07-29T12:46:22.003Z,27.00
2022-07-29T12:48:52.021Z,27.00
2022-07-29T12:51:29.286Z,26.80
2022-07-29T12:54:08.273Z,26.20
2022-07-29T12:56:44.769Z,25.30
2022-07-29T12:59:20.210Z,24.60
2022-07-29T13:01:49.699Z,24.10
2022-07-29T13:04:26.652Z,23.60
2022-07-29T13:07:04.631Z,23.30
2022-07-29T13:09:40.550Z,23.10
2022-07-29T13:12:09.797Z,22.80
2022-07-29T13:14:39.487Z,22.30
2022-07-29T13:17:10.921Z,21.30
2022-07-29T13:19:39.093Z,21.00
2022-07-29T13:22:07.424Z,21.20
2022-07-29T13:24:35.944Z,21.10
2022-07-29T13:27:05.696Z,21.10
2022-07-29T13:29:33.876Z,21.10
2022-07-29T13:32:02.054Z,21.40
2022-07-29T13:34:30.134Z,22.00
2022-07-29T13:36:58.243Z,22.80
2022-07-29T13:39:25.981Z,22.40
2022-07-29T13:41:55.066Z,22.20
2022-07-29T13:44:24.703Z,22.40
2022-07-29T13:46:52.310Z,22.80
2022-07-29T13:49:19.982Z,23.50
2022-07-29T13:51:47.886Z,23.80
2022-07-29T13:54:15.713Z,24.10
2022-07-29T13:56:43.837Z,24.50
2022-07-29T13:59:14.182Z,24.30
2022-07-29T14:01:43.511Z,23.40
2022-07-29T14:04:13.637Z,23.00
2022-07-29T14:06:41.530Z,22.90
2022-07-29T14:09:10.699Z,23.30
2022-07-29T14:11:39.828Z,23.20
2022-07-29T14:14:08.063Z,23.60
2022-07-29T14:16:40.445Z,23.90
2022-07-29T14:19:10.297Z,23.80
2022-07-29T14:21:38.747Z,23.20
2022-07-29T14:24:16.233Z,23.00
2022-07-29T14:26:46.407Z,22.50
2022-07-29T14:29:14.204Z,22.40
2022-07-29T14:31:41.960Z,22.40
2022-07-29T14:34:09.657Z,21.60
2022-07-29T14:36:37.362Z,21.30
2022-07-29T14:39:05.734Z,21.80
2022-07-29T14:41:34.304Z,22.00
2022-07-29T14:44:02.007Z,21.80
2022-07-29T14:46:29.629Z,21.90
2022-07-29T14:48:57.541Z,22.10
2022-07-29T14:51:25.183Z,22.10
2022-07-29T14:54:00.319Z,21.80
2022-07-29T14:56:37.308Z,21.70
2022-07-29T14:59:05.904Z,21.50
2022-07-29T15:01:33.604Z,21.30
2022-07-29T15:04:01.219Z,21.00
2022-07-29T15:06:29.175Z,20.70
2022-07-29T15:08:56.769Z,20.60
2022-07-29T15:11:24.382Z,20.50
2022-07-29T15:13:52.421Z,20.20
2022-07-29T15:16:20.034Z,20.10
2022-07-29T15:18:47.677Z,19.80
2022-07-29T15:21:16.591Z,19.60
2022-07-29T15:23:44.208Z,19.60
2022-07-29T15:26:11.621Z,19.50
2022-07-29T15:28:39.077Z,19.40
2022-07-29T15:31:06.791Z,19.40
2022-07-29T15:33:34.290Z,19.30
2022-07-29T15:36:02.303Z,19.30
2022-07-29T15:38:30.153Z,19.40
2022-07-29T15:40:57.933Z,19.40
2022-07-29T15:43:26.467Z,19.60
2022-07-29T15:46:12.983Z,19.70
2022-07-29T15:48:40.679Z,19.70
2022-07-29T15:51:08.262Z,19.20
2022-07-29T15:53:35.779Z,19.20
2022-07-29T15:56:03.856Z,19.40
2022-07-29T15:58:31.576Z,19.40
2022-07-29T16:00:59.429Z,19.30
2022-07-29T16:03:27.318Z,19.40
2022-07-29T16:05:55.038Z,19.30
2022-07-29T16:08:22.872Z,19.20
2022-07-29T16:10:50.752Z,19.00
2022-07-29T16:13:18.976Z,19.00
2022-07-29T16:16:02.175Z,19.20
2022-07-29T16:18:31.063Z,19.30
2022-07-29T16:20:58.841Z,19.10
2022-07-29T16:23:26.890Z,18.70
2022-07-29T16:26:00.044Z,18.70
2022-07-29T16:28:29.302Z,18.60
2022-07-29T16:30:57.584Z,18.60
2022-07-29T16:33:25.199Z,18.40
2022-07-29T16:35:52.849Z,18.30
2022-07-29T16:38:20.367Z,18.10
2022-07-29T16:40:48.207Z,18.30
2022-07-29T16:43:16.122Z,18.40
2022-07-29T16:45:46.037Z,18.50
2022-07-29T16:48:14.720Z,18.50
2022-07-29T16:50:43.211Z,18.40
2022-07-29T16:53:11.513Z,18.50
2022-07-29T16:55:42.516Z,18.50
2022-07-29T16:58:11.156Z,18.60
2022-07-29T17:00:39.127Z,18.50
2022-07-29T17:03:07.281Z,18.50
2022-07-29T17:05:52.330Z,18.50
2022-07-29T17:08:23.384Z,18.50
2022-07-29T17:10:50.860Z,18.50
2022-07-29T17:13:18.813Z,18.50
2022-07-29T17:15:46.585Z,18.40
2022-07-29T17:18:14.251Z,18.40
2022-07-29T17:20:42.650Z,18.40
2022-07-29T17:23:10.268Z,18.30
2022-07-29T17:25:37.771Z,18.40
2022-07-29T17:28:05.786Z,18.50
2022-07-29T17:30:33.343Z,18.60
2022-07-29T17:33:01.081Z,18.50
2022-07-29T17:35:47.684Z,18.40
2022-07-29T17:38:15.362Z,18.30
2022-07-29T17:40:42.980Z,18.30
2022-07-29T17:43:10.562Z,18.10
2022-07-29T17:45:50.339Z,18.10
2022-07-29T17:48:19.023Z,18.20
2022-07-29T17:50:47.798Z,18.20
2022-07-29T17:53:16.799Z,18.20
2022-07-29T17:55:49.303Z,18.30
2022-07-29T17:58:17.353Z,18.20
2022-07-29T18:00:46.008Z,18.20
2022-07-29T18:03:13.704Z,18.00
2022-07-29T18:05:41.843Z,18.00
2022-07-29T18:08:10.038Z,18.00
2022-07-29T18:10:38.244Z,17.90
2022-07-29T18:13:06.356Z,17.90
2022-07-29T18:15:34.405Z,17.70
2022-07-29T18:18:02.113Z,17.80
2022-07-29T18:20:29.627Z,17.90
2022-07-29T18:22:57.160Z,17.80
2022-07-29T18:25:26.053Z,17.70
2022-07-29T18:27:58.427Z,17.60
2022-07-29T18:30:28.856Z,17.50
2022-07-29T18:33:19.742Z,17.50
2022-07-29T18:35:44.876Z,17.50
2022-07-29T18:38:12.625Z,17.40
2022-07-29T18:40:42.260Z,17.20
2022-07-29T18:43:09.962Z,17.10
2022-07-29T18:45:39.482Z,17.10
2022-07-29T18:48:12.625Z,17.20
2022-07-29T18:50:41.635Z,17.10
2022-07-29T18:53:09.372Z,17.00
2022-07-29T18:55:36.916Z,16.90
2022-07-29T18:58:05.793Z,16.90
2022-07-29T19:00:33.895Z,16.90
2022-07-29T19:03:03.464Z,16.80
2022-07-29T19:05:31.755Z,16.80
2022-07-29T19:08:00.382Z,16.80
2022-07-29T19:10:28.593Z,16.90
2022-07-29T19:12:57.857Z,17.00
2022-07-29T19:15:25.734Z,17.00
2022-07-29T19:17:56.566Z,17.10
2022-07-29T19:20:26.757Z,17.10
2022-07-29T19:22:54.452Z,17.10
2022-07-29T19:25:23.251Z,17.10
2022-07-29T19:27:51.959Z,17.10
2022-07-29T19:30:20.085Z,16.80
2022-07-29T19:32:48.001Z,16.80
2022-07-29T19:35:28.645Z,16.80
2022-07-29T19:37:56.989Z,16.80
2022-07-29T19:40:26.367Z,16.80
2022-07-29T19:42:54.510Z,16.80
2022-07-29T19:45:22.988Z,16.70
2022-07-29T19:47:50.986Z,16.70
2022-07-29T19:50:19.014Z,16.80
2022-07-29T19:52:47.355Z,16.80
2022-07-29T19:55:15.305Z,16.80
2022-07-29T19:57:42.986Z,16.90
2022-07-29T20:00:11.771Z,16.90
2022-07-29T20:02:40.521Z,16.90
2022-07-29T20:05:08.603Z,16.90
2022-07-29T20:07:36.587Z,16.90
2022-07-29T20:10:04.513Z,16.90
2022-07-29T20:12:32.484Z,17.00
2022-07-29T20:15:00.607Z,17.00
2022-07-29T20:17:29.120Z,17.10
2022-07-29T20:19:57.246Z,17.10
2022-07-29T20:22:25.020Z,17.10
2022-07-29T20:24:52.408Z,17.10
2022-07-29T20:27:20.400Z,17.10
2022-07-29T20:29:47.807Z,17.20
2022-07-29T20:32:15.701Z,17.20
2022-07-29T20:34:43.306Z,17.10
2022-07-29T20:37:11.624Z,17.10
2022-07-29T20:39:39.399Z,17.00
2022-07-29T20:42:07.392Z,17.00
2022-07-29T20:44:35.349Z,17.00
2022-07-29T20:47:03.557Z,17.10
2022-07-29T20:49:31.534Z,17.00
2022-07-29T20:51:59.157Z,17.10
2022-07-29T20:54:26.831Z,17.10
2022-07-29T20:56:54.523Z,17.20
2022-07-29T20:59:22.714Z,17.20
2022-07-29T21:01:50.343Z,17.10
2022-07-29T21:04:18.262Z,17.10
2022-07-29T21:06:45.814Z,17.20
2022-07-29T21:09:13.800Z,17.20
2022-07-29T21:11:44.776Z,17.10
2022-07-29T21:14:31.935Z,17.10
2022-07-29T21:16:59.966Z,17.00
2022-07-29T21:19:27.834Z,17.00
2022-07-29T21:21:55.594Z,17.00
2022-07-29T21:24:23.178Z,17.00
2022-07-29T21:27:18.363Z,17.10
2022-07-29T21:29:38.610Z,17.10
2022-07-29T21:32:06.297Z,17.10
2022-07-29T21:34:33.909Z,17.00
2022-07-29T21:37:01.727Z,17.00
2022-07-29T21:39:29.564Z,17.00
2022-07-29T21:41:57.235Z,17.00
2022-07-29T21:44:24.995Z,17.00
2022-07-29T21:46:52.742Z,16.90
2022-07-29T21:49:20.627Z,16.90
2022-07-29T21:51:48.257Z,17.00
2022-07-29T21:54:18.554Z,17.00
2022-07-29T21:57:01.583Z,17.00
2022-07-29T21:59:29.291Z,17.00
2022-07-29T22:01:57.118Z,17.00
2022-07-29T22:04:24.800Z,17.00
2022-07-29T22:06:53.433Z,17.00
2022-07-29T22:09:20.994Z,17.00
2022-07-29T22:11:48.543Z,17.00
2022-07-29T22:14:18.123Z,17.00
2022-07-29T22:16:46.127Z,17.00
2022-07-29T22:19:14.338Z,17.00
2022-07-29T22:21:42.413Z,17.00
2022-07-29T22:24:12.952Z,17.00
2022-07-29T22:26:40.611Z,17.00
2022-07-29T22:29:08.163Z,17.00
2022-07-29T22:31:35.729Z,17.00
2022-07-29T22:34:03.550Z,17.00
2022-07-29T22:36:31.035Z,17.00
2022-07-29T22:38:58.893Z,17.00
2022-07-29T22:41:26.266Z,17.00
2022-07-29T22:43:53.824Z,17.00
2022-07-29T22:46:21.481Z,17.10
2022-07-29T22:48:49.070Z,17.00
2022-07-29T22:51:18.038Z,17.00
2022-07-29T22:53:47.011Z,17.00
2022-07-29T22:56:14.535Z,17.00
2022-07-29T22:58:42.439Z,17.00
2022-07-29T23:01:10.503Z,17.00
2022-07-29T23:03:39.486Z,17.00
2022-07-29T23:06:07.577Z,17.00
2022-07-29T23:08:35.431Z,17.00
2022-07-29T23:11:03.197Z,16.90
2022-07-29T23:13:30.975Z,17.00
2022-07-29T23:15:58.564Z,17.00
2022-07-29T23:18:26.123Z,17.00
2022-07-29T23:20:54.047Z,17.00
2022-07-29T23:23:21.651Z,16.90
2022-07-29T23:25:49.175Z,16.90
2022-07-29T23:28:18.032Z,16.90
2022-07-29T23:30:45.618Z,16.90
2022-07-29T23:33:13.281Z,16.90
2022-07-29T23:35:40.862Z,16.80
2022-07-29T23:38:08.478Z,16.80
2022-07-29T23:40:35.990Z,16.70
2022-07-29T23:43:03.677Z,16.70
2022-07-29T23:45:42.598Z,16.60
2022-07-29T23:48:12.882Z,16.70
2022-07-29T23:50:40.300Z,16.70
2022-07-29T23:53:07.826Z,16.80
2022-07-29T23:55:36.665Z,16.80
2022-07-29T23:58:06.776Z,16.80
